Startpagina
METAR-TAF:

METAR-TAF

Vliegvelden :

Istanbul Atatürk, Turkije

Luchthaven Istanbul Atatürk

breedte: 40-58N, lengte: 028-49E, hoogte: 48 m

Actueel weer

Dit bericht is 22 minuten geleden gemaakt, om 20:50 UTC
Wind 11 kt uit het zuidzuidwesten
Temperatuur 10°C
Vochtigheid 82%
Druk 1013 hPa
Zicht 10 km of meer
Gebroken wolken op 2500 ft

METAR: LTBA 162050Z 20011KT 9999 BKN025 10/07 Q1013 NOSIG RMK RWY17L 21011KT 170V240 RWY05 19011KT RWY23 22012KT

Tijdstip: 00:12 (21:12 UTC)

Verwachting

Dit bericht is 4 uur en het 32 minuten geleden gemaakt, om 16:40 UTC
Verwachting geldig van 16 om 18 UTC tot 17 om 24 UTC
Wind 8 kt uit het zuidzuidwesten
Zicht 10 km of meer
Verspreide wolken op 3500 ft
Wijzigt naar
van 17 om 04 UTC tot 17 om 08 UTC
Wind 15 kt uit het zuidzuidwesten met uitschieters tot 25 kt
Wijzigt naar
van 17 om 13 UTC tot 17 om 17 UTC
Wind 25 kt uit het zuidwesten met uitschieters tot 35 kt

TAF: LTBA 161640Z 1618/1724 21008KT 9999 SCT035 BECMG 1704/1708 21015G25KT BECMG 1713/1717 22025G35KT

Waarnemingen en weersverwachtingen van meer dan 4000 vliegvelden (METAR en TAF).

De beschikbare stations zijn de gele en rode punten op de kaart.

Ga met uw muis naar het station om de naam te zien.

Klik dan om waarnemingen en weersverwachtingen te zien.

kaart wijzigen: klik op de groene knoppen met een zwart kruis om in te zoomen, op de groene knop met een streepje om uit te zoomen of op de groene pijlen voor aangrenzende kaarten.


METAR-TAF: